Terminal Aerodrome Forecast
Issued by NWS

Home | Current Version | Previous Version | Text Only | Print | Product List | Glossary On
Versions: 1 2 3 4 5 6 7 8 9 10 11 12 13 14
000
FTUS42 KMLB 200500
TAFISM
TAF
KISM 200530Z 2006/2106 00000KT P6SM FEW150 BKN250
      TEMPO 2009/2013 5SM BR SCT250
     FM201500 17005KT P6SM SCT100 BKN250
     FM210000 10004KT P6SM BKN100 OVC250
      AMD NOT SKED 2006/2012=

USA.gov is the U.S. government's official web portal to all federal, state and local government web resources and services.